| time (UTC) | temp F | wind direction | speed MPH | gust MPH | rain 1hr in | rain 24hr in | rain mn in | humidity % | barometer mb |
| 20260502163049 | 51 | 205 | 0.0 | 3.0 | 0.00 | 0.07 | 0.07 | 85 | 1010.0 |
| 20260502161534 | 50 | 133 | 0.0 | 2.0 | 0.00 | 0.07 | 0.07 | 85 | 1010.1 |
| 20260502151551 | 50 | 160 | 0.0 | 1.0 | 0.00 | 0.07 | 0.07 | 89 | 1010.8 |
| 20260502123125 | 45 | 225 | 0.0 | 0.0 | 0.03 | 0.06 | 0.06 | 95 | 1011.6 |
| 20260502121543 | 45 | 225 | 0.0 | 0.0 | 0.02 | 0.05 | 0.05 | 95 | 1011.6 |
| 20260502114518 | 45 | 225 | 0.0 | 0.0 | 0.01 | 0.03 | 0.03 | 95 | 1011.2 |
| 20260502113018 | 45 | 225 | 0.0 | 0.0 | 0.01 | 0.03 | 0.03 | 95 | 1010.9 |
| 20260502111617 | 44 | 225 | 0.0 | 0.0 | 0.02 | 0.03 | 0.03 | 94 | 1010.8 |
| 20260502110058 | 44 | 225 | 0.0 | 0.0 | 0.02 | 0.03 | 0.03 | 94 | 1011.2 |
| 20260502104556 | 44 | 122 | 0.0 | 1.0 | 0.01 | 0.02 | 0.02 | 94 | 1010.8 |
| 20260502103037 | 44 | 169 | 0.0 | 0.0 | 0.01 | 0.02 | 0.02 | 94 | 1010.5 |
| 20260502101540 | 44 | 169 | 0.0 | 0.0 | 0.00 | 0.01 | 0.01 | 94 | 1010.5 |
| 20260502071532 | 46 | 218 | 0.0 | 2.0 | 0.00 | 0.00 | 0.00 | 83 | 1010.1 |
| 20260502070015 | 46 | 205 | 0.0 | 0.0 | 0.00 | 0.00 | 0.00 | 82 | 1010.2 |
| 20260502064517 | 46 | 229 | 0.0 | 1.0 | 0.00 | 0.00 | 0.00 | 82 | 1010.5 |
| 20260502063101 | 46 | 192 | 0.0 | 4.0 | 0.00 | 0.00 | 0.00 | 82 | 1010.6 |
| 20260502061556 | 47 | 204 | 0.0 | 0.0 | 0.00 | 0.00 | 0.00 | 78 | 1010.3 |
| 20260502060043 | 48 | 195 | 0.0 | 2.0 | 0.00 | 0.00 | 0.00 | 74 | 1010.7 |
| 20260502054540 | 48 | 85 | 0.0 | 3.0 | 0.00 | 0.00 | 0.00 | 73 | 1010.5 |
| 20260502053020 | 48 | 145 | 0.0 | 3.0 | 0.00 | 0.00 | 0.00 | 72 | 1010.5 |
| 20260502051523 | 48 | 115 | 0.0 | 1.0 | 0.00 | 0.00 | 0.00 | 70 | 1010.5 |
| 20260502050003 | 49 | 114 | 0.0 | 1.0 | 0.00 | 0.00 | 0.00 | 68 | 1010.6 |
| 20260502044600 | 49 | 200 | 0.0 | 3.0 | 0.00 | 0.00 | 0.00 | 67 | 1010.6 |
| 20260502043046 | 49 | 111 | 0.0 | 3.0 | 0.00 | 0.00 | 0.00 | 66 | 1010.5 |
| 20260502041547 | 49 | 174 | 0.0 | 3.0 | 0.00 | 0.00 | 0.00 | 64 | 1010.6 |
| 20260502040024 | 49 | 108 | 0.0 | 1.0 | 0.00 | 0.00 | 0.00 | 64 | 1010.8 |
| 20260502034523 | 49 | 125 | 0.0 | 2.0 | 0.00 | 0.00 | 0.00 | 63 | 1010.8 |
| 20260502033014 | 49 | 205 | 0.0 | 2.0 | 0.00 | 0.00 | 0.00 | 61 | 1010.9 |
| 20260502031506 | 49 | 134 | 0.0 | 1.0 | 0.00 | 0.00 | 0.00 | 61 | 1010.9 |
| 20260502030047 | 49 | 125 | 0.0 | 1.0 | 0.00 | 0.00 | 0.00 | 61 | 1010.9 |
| 20260502024606 | 50 | 119 | 0.0 | 1.0 | 0.00 | 0.00 | 0.00 | 59 | 1010.8 |
| 20260502023028 | 51 | 205 | 0.0 | 3.0 | 0.00 | 0.00 | 0.00 | 56 | 1010.8 |
| 20260502021526 | 49 | 144 | 0.0 | 2.0 | 0.00 | 0.00 | 0.00 | 55 | 1010.7 |
| 20260502020008 | 49 | 174 | 0.0 | 1.0 | 0.00 | 0.00 | 0.00 | 55 | 1010.6 |
| 20260502014507 | 49 | 174 | 0.0 | 1.0 | 0.00 | 0.00 | 0.00 | 54 | 1010.5 |
| 20260502013049 | 49 | 174 | 0.0 | 0.0 | 0.00 | 0.00 | 0.00 | 53 | 1010.4 |
| 20260502011549 | 49 | 174 | 0.0 | 0.0 | 0.00 | 0.00 | 0.00 | 52 | 1010.3 |
| 20260502010033 | 50 | 174 | 0.0 | 0.0 | 0.00 | 0.00 | 0.00 | 52 | 1010.2 |
| 20260502004546 | 50 | 174 | 0.0 | 1.0 | 0.00 | 0.00 | 0.00 | 50 | 1010.1 |
| 20260502003011 | 51 | 174 | 0.0 | 1.0 | 0.00 | 0.00 | 0.00 | 49 | 1009.9 |
| 20260502001510 | 52 | 174 | 0.0 | 0.0 | 0.00 | 0.00 | 0.00 | 47 | 1009.8 |
| 20260502000106 | 53 | 174 | 0.0 | 0.0 | 0.00 | 0.00 | 0.00 | 44 | 1009.4 |
| 20260501234557 | 55 | 174 | 0.0 | 0.0 | 0.00 | 0.00 | 0.00 | 42 | 1009.3 |
| 20260501233057 | 55 | 222 | 0.0 | 1.0 | 0.00 | 0.00 | 0.00 | 40 | 1009.1 |
| 20260501231556 | 56 | 217 | 0.0 | 4.0 | 0.00 | 0.01 | 0.00 | 39 | 1008.8 |
| 20260501230055 | 57 | 170 | 0.0 | 1.0 | 0.00 | 0.01 | 0.00 | 38 | 1008.6 |
| 20260501224554 | 57 | 193 | 0.0 | 1.0 | 0.00 | 0.01 | 0.00 | 38 | 1008.5 |
| 20260501223104 | 58 | 169 | 0.0 | 2.0 | 0.00 | 0.01 | 0.00 | 39 | 1008.5 |
| 20260501221558 | 59 | 359 | 0.0 | 5.0 | 0.00 | 0.01 | 0.00 | 37 | 1008.6 |
| 20260501220052 | 60 | 167 | 0.0 | 2.0 | 0.00 | 0.01 | 0.00 | 36 | 1008.5 |
| 20260501214548 | 60 | 160 | 2.0 | 6.0 | 0.00 | 0.01 | 0.00 | 35 | 1008.4 |
| 20260501213044 | 59 | 184 | 0.0 | 3.0 | 0.00 | 0.01 | 0.00 | 38 | 1008.3 |
| 20260501211529 | 60 | 345 | 0.0 | 4.0 | 0.00 | 0.01 | 0.00 | 37 | 1008.2 |
| 20260501210027 | 60 | 43 | 0.0 | 6.0 | 0.00 | 0.01 | 0.00 | 36 | 1008.3 |
| 20260501204510 | 62 | 248 | 0.0 | 8.0 | 0.00 | 0.01 | 0.00 | 33 | 1008.1 |
| 20260501203049 | 62 | 208 | 0.0 | 2.0 | 0.00 | 0.01 | 0.00 | 38 | 1008.1 |
| 20260501201548 | 64 | 220 | 0.0 | 4.0 | 0.00 | 0.01 | 0.00 | 36 | 1008.0 |
| 20260501200028 | 63 | 249 | 0.0 | 7.0 | 0.00 | 0.01 | 0.00 | 38 | 1008.1 |
| 20260501194534 | 64 | 122 | 0.0 | 5.0 | 0.00 | 0.01 | 0.00 | 33 | 1008.0 |
| 20260501193008 | 64 | 209 | 0.0 | 4.0 | 0.00 | 0.01 | 0.00 | 36 | 1008.3 |
| 20260501191505 | 62 | 205 | 0.0 | 6.0 | 0.00 | 0.01 | 0.00 | 36 | 1008.3 |
| 20260501190107 | 60 | 43 | 0.0 | 3.0 | 0.00 | 0.01 | 0.00 | 40 | 1008.5 |
| 20260501184554 | 61 | 134 | 0.0 | 5.0 | 0.00 | 0.01 | 0.00 | 40 | 1008.6 |
| 20260501183027 | 61 | 118 | 0.0 | 4.0 | 0.00 | 0.01 | 0.00 | 38 | 1008.8 |
| 20260501181523 | 61 | 173 | 1.0 | 8.0 | 0.00 | 0.02 | 0.00 | 37 | 1008.7 |